Aviation Digital Data Service (ADDS)

Output produced by METARs form (1247 UTC 31 October 2014)
found at http://www.aviationweather.gov/adds/metars/
 
KROW 311151Z 00000KT 10SM CLR 06/01 A3039 RMK AO2 SLP255 T00610011 10122 20061 53007
KROW 311051Z AUTO 00000KT 10SM CLR 07/01 A3038 RMK AO2 SLP246 T00670011
KROW 310951Z AUTO 29004KT 10SM CLR 08/01 A3037 RMK AO2 SLP239 T00780006
KROW 310851Z AUTO 27003KT 10SM CLR 09/01 A3036 RMK AO2 SLP237 T00890006 51007
KROW 310751Z AUTO 28004KT 10SM CLR 09/01 A3036 RMK AO2 SLP236 T00940006
KROW 310651Z AUTO 32005KT 10SM CLR 11/00 A3035 RMK AO2 SLP234 T01060000 402670061
KROW 310551Z AUTO 32003KT 10SM CLR 12/00 A3034 RMK AO2 SLP230 T01220000 10217 20117 51019
KROW 310451Z AUTO 03005KT 10SM CLR 13/00 A3032 RMK AO2 SLP226 T01280000
KROW 310351Z AUTO 04006KT 10SM CLR 13/01 A3030 RMK AO2 SLP222 T01330006
KROW 310251Z AUTO 06006KT 10SM CLR 15/01 A3028 RMK AO2 SLP217 T01500011 53019
KROW 310151Z 03006KT 10SM CLR 16/02 A3025 RMK AO2 SLP214 T01560017
KROW 310051Z 03005KT 10SM CLR 18/02 A3023 RMK AO2 SLP204 T01780017
KROW 302351Z 05006KT 10SM CLR 22/01 A3021 RMK AO2 SLP193 T02170011 10267 20217 53004
KROW 302251Z 05010KT 10SM CLR 26/M01 A3020 RMK AO2 SLP185 T02561011
KROW 302151Z AUTO 03010KT 10SM CLR 26/M02 A3020 RMK AO2 SLP181 T02611017
KROW 302051Z 36011KT 10SM CLR 26/01 A3020 RMK AO2 SLP182 T02610006 56017
KROW 301951Z 01011KT 10SM CLR 26/01 A3021 RMK AO2 SLP188 T02560011
KROW 301851Z 36014G19KT 10SM CLR 24/02 A3024 RMK AO2 SLP194 T02440022
KROW 301751Z 02014KT 10SM CLR 22/02 A3026 RMK AO2 SLP205 T02170022 10222 20061 50007
KROW 301651Z 01016G22KT 10SM CLR 21/02 A3026 RMK AO2 SLP203 T02060017
KROW 301642Z 36016G24KT 10SM CLR 21/01 A3025 RMK AO2 T02060011
KROW 301633Z 36013KT 2 1/2SM HZ CLR 21/01 A3025 RMK AO2 T02060006
KROW 301551Z 32010KT 10SM CLR 17/01 A3025 RMK AO2 SLP205 T01720006
KROW 301451Z 35007KT 10SM CLR 13/05 A3023 RMK AO2 SLP204 T01280050 53024
KROW 301351Z 31005KT 10SM CLR 08/05 A3019 RMK AO2 SLP194 T00830050
KROW 301251Z 32004KT 10SM CLR 07/05 A3017 RMK AO2 SLP188 T00720050
KROW 311126Z 3112/0112 VRB05KT P6SM SCT250 
     FM311600 15010KT P6SM SCT250 
     FM010000 18010KT P6SM SCT200